sensor_id;sensor_type;location;lat;lon;timestamp;P1;durP1;ratioP1;P2;durP2;ratioP2
8094;SDS011;4090;49.270;8.696;2023-08-31T00:01:21;3.58;;;2.30;;
8094;SDS011;4090;49.270;8.696;2023-08-31T00:04:03;3.08;;;2.25;;
8094;SDS011;4090;49.270;8.696;2023-08-31T00:06:47;3.45;;;2.40;;
8094;SDS011;4090;49.270;8.696;2023-08-31T00:09:29;2.40;;;2.08;;
8094;SDS011;4090;49.270;8.696;2023-08-31T00:12:11;5.03;;;2.05;;
8094;SDS011;4090;49.270;8.696;2023-08-31T00:14:54;3.75;;;2.22;;
8094;SDS011;4090;49.270;8.696;2023-08-31T00:17:37;3.60;;;2.30;;
8094;SDS011;4090;49.270;8.696;2023-08-31T00:20:19;4.88;;;2.58;;
8094;SDS011;4090;49.270;8.696;2023-08-31T00:23:02;3.75;;;3.00;;
8094;SDS011;4090;49.270;8.696;2023-08-31T00:25:44;3.90;;;2.85;;
8094;SDS011;4090;49.270;8.696;2023-08-31T00:28:26;3.60;;;2.75;;
8094;SDS011;4090;49.270;8.696;2023-08-31T00:31:09;4.40;;;2.60;;
8094;SDS011;4090;49.270;8.696;2023-08-31T00:33:53;3.28;;;2.40;;
8094;SDS011;4090;49.270;8.696;2023-08-31T00:36:35;3.33;;;2.65;;
8094;SDS011;4090;49.270;8.696;2023-08-31T00:39:18;4.65;;;2.95;;
8094;SDS011;4090;49.270;8.696;2023-08-31T00:42:01;5.13;;;2.58;;
8094;SDS011;4090;49.270;8.696;2023-08-31T00:44:43;6.38;;;2.70;;
8094;SDS011;4090;49.270;8.696;2023-08-31T00:47:28;3.40;;;2.38;;
8094;SDS011;4090;49.270;8.696;2023-08-31T00:50:10;3.78;;;2.53;;
8094;SDS011;4090;49.270;8.696;2023-08-31T00:52:52;4.18;;;2.88;;
8094;SDS011;4090;49.270;8.696;2023-08-31T00:55:34;8.32;;;3.45;;
8094;SDS011;4090;49.270;8.696;2023-08-31T00:58:16;3.55;;;2.65;;
8094;SDS011;4090;49.270;8.696;2023-08-31T01:01:00;6.35;;;2.65;;
8094;SDS011;4090;49.270;8.696;2023-08-31T01:03:53;5.30;;;2.58;;
8094;SDS011;4090;49.270;8.696;2023-08-31T01:06:41;3.67;;;2.50;;
8094;SDS011;4090;49.270;8.696;2023-08-31T01:09:34;3.70;;;2.42;;
8094;SDS011;4090;49.270;8.696;2023-08-31T01:12:22;2.88;;;2.58;;
8094;SDS011;4090;49.270;8.696;2023-08-31T01:15:11;4.03;;;2.60;;
8094;SDS011;4090;49.270;8.696;2023-08-31T01:17:55;5.30;;;2.90;;
8094;SDS011;4090;49.270;8.696;2023-08-31T01:20:42;5.55;;;3.25;;
8094;SDS011;4090;49.270;8.696;2023-08-31T01:23:29;5.30;;;2.95;;
8094;SDS011;4090;49.270;8.696;2023-08-31T01:26:21;3.80;;;2.80;;
8094;SDS011;4090;49.270;8.696;2023-08-31T01:29:04;3.92;;;3.53;;
8094;SDS011;4090;49.270;8.696;2023-08-31T01:31:46;3.50;;;2.92;;
8094;SDS011;4090;49.270;8.696;2023-08-31T01:34:28;5.10;;;3.35;;
8094;SDS011;4090;49.270;8.696;2023-08-31T01:37:12;4.55;;;3.08;;
8094;SDS011;4090;49.270;8.696;2023-08-31T01:40:02;3.88;;;3.15;;
8094;SDS011;4090;49.270;8.696;2023-08-31T01:42:49;5.47;;;3.20;;
8094;SDS011;4090;49.270;8.696;2023-08-31T01:45:32;4.60;;;3.05;;
8094;SDS011;4090;49.270;8.696;2023-08-31T01:48:14;6.85;;;3.35;;
8094;SDS011;4090;49.270;8.696;2023-08-31T01:50:56;6.28;;;3.10;;
8094;SDS011;4090;49.270;8.696;2023-08-31T01:53:40;4.05;;;3.15;;
8094;SDS011;4090;49.270;8.696;2023-08-31T01:56:22;5.03;;;3.10;;
8094;SDS011;4090;49.270;8.696;2023-08-31T01:59:05;4.40;;;3.20;;
8094;SDS011;4090;49.270;8.696;2023-08-31T02:01:47;6.80;;;3.33;;
8094;SDS011;4090;49.270;8.696;2023-08-31T02:04:29;5.97;;;3.70;;
8094;SDS011;4090;49.270;8.696;2023-08-31T02:07:11;4.35;;;3.85;;
8094;SDS011;4090;49.270;8.696;2023-08-31T02:09:53;5.00;;;3.30;;
8094;SDS011;4090;49.270;8.696;2023-08-31T02:12:34;6.05;;;3.58;;
8094;SDS011;4090;49.270;8.696;2023-08-31T02:15:18;6.13;;;3.20;;
8094;SDS011;4090;49.270;8.696;2023-08-31T02:18:00;3.72;;;2.75;;
8094;SDS011;4090;49.270;8.696;2023-08-31T02:20:42;5.32;;;2.80;;
8094;SDS011;4090;49.270;8.696;2023-08-31T02:23:24;6.95;;;3.13;;
8094;SDS011;4090;49.270;8.696;2023-08-31T02:26:06;4.15;;;3.10;;
8094;SDS011;4090;49.270;8.696;2023-08-31T02:28:48;5.60;;;3.60;;
8094;SDS011;4090;49.270;8.696;2023-08-31T02:31:31;4.78;;;3.50;;
8094;SDS011;4090;49.270;8.696;2023-08-31T02:34:13;5.35;;;3.55;;
8094;SDS011;4090;49.270;8.696;2023-08-31T02:36:56;5.82;;;3.33;;
8094;SDS011;4090;49.270;8.696;2023-08-31T02:39:37;5.38;;;3.60;;
8094;SDS011;4090;49.270;8.696;2023-08-31T02:42:20;4.05;;;3.65;;
8094;SDS011;4090;49.270;8.696;2023-08-31T02:45:02;4.30;;;3.67;;
8094;SDS011;4090;49.270;8.696;2023-08-31T02:47:46;5.75;;;3.88;;
8094;SDS011;4090;49.270;8.696;2023-08-31T02:50:31;4.63;;;3.75;;
8094;SDS011;4090;49.270;8.696;2023-08-31T02:53:12;4.38;;;3.58;;
8094;SDS011;4090;49.270;8.696;2023-08-31T02:55:54;5.85;;;3.20;;
8094;SDS011;4090;49.270;8.696;2023-08-31T02:58:36;4.32;;;3.17;;
8094;SDS011;4090;49.270;8.696;2023-08-31T03:01:18;5.85;;;3.72;;
8094;SDS011;4090;49.270;8.696;2023-08-31T03:04:05;8.93;;;3.58;;
8094;SDS011;4090;49.270;8.696;2023-08-31T03:06:47;6.93;;;3.85;;
8094;SDS011;4090;49.270;8.696;2023-08-31T03:09:29;6.88;;;3.63;;
8094;SDS011;4090;49.270;8.696;2023-08-31T03:12:10;4.13;;;3.58;;
8094;SDS011;4090;49.270;8.696;2023-08-31T03:14:52;6.03;;;3.35;;
8094;SDS011;4090;49.270;8.696;2023-08-31T03:17:34;5.68;;;3.55;;
8094;SDS011;4090;49.270;8.696;2023-08-31T03:20:17;5.30;;;3.83;;
8094;SDS011;4090;49.270;8.696;2023-08-31T03:22:59;5.47;;;3.60;;
8094;SDS011;4090;49.270;8.696;2023-08-31T03:25:41;8.15;;;3.80;;
8094;SDS011;4090;49.270;8.696;2023-08-31T03:28:23;6.43;;;3.50;;
8094;SDS011;4090;49.270;8.696;2023-08-31T03:31:06;8.18;;;4.30;;
8094;SDS011;4090;49.270;8.696;2023-08-31T03:33:49;7.05;;;3.78;;
8094;SDS011;4090;49.270;8.696;2023-08-31T03:36:32;6.00;;;3.60;;
8094;SDS011;4090;49.270;8.696;2023-08-31T03:39:15;7.22;;;3.58;;
8094;SDS011;4090;49.270;8.696;2023-08-31T03:41:58;8.13;;;4.20;;
8094;SDS011;4090;49.270;8.696;2023-08-31T03:44:40;4.50;;;3.75;;
8094;SDS011;4090;49.270;8.696;2023-08-31T03:47:23;4.65;;;3.72;;
8094;SDS011;4090;49.270;8.696;2023-08-31T03:50:05;7.18;;;3.85;;
8094;SDS011;4090;49.270;8.696;2023-08-31T03:52:49;5.80;;;3.53;;
8094;SDS011;4090;49.270;8.696;2023-08-31T03:55:32;4.30;;;3.50;;
8094;SDS011;4090;49.270;8.696;2023-08-31T03:58:14;5.55;;;3.42;;
8094;SDS011;4090;49.270;8.696;2023-08-31T04:01:00;9.10;;;3.63;;
8094;SDS011;4090;49.270;8.696;2023-08-31T04:03:42;4.50;;;3.50;;
8094;SDS011;4090;49.270;8.696;2023-08-31T04:06:24;6.03;;;3.80;;
8094;SDS011;4090;49.270;8.696;2023-08-31T04:09:07;5.63;;;3.30;;
8094;SDS011;4090;49.270;8.696;2023-08-31T04:11:49;5.30;;;3.30;;
8094;SDS011;4090;49.270;8.696;2023-08-31T04:14:31;5.50;;;3.92;;
8094;SDS011;4090;49.270;8.696;2023-08-31T04:17:13;5.90;;;3.80;;
8094;SDS011;4090;49.270;8.696;2023-08-31T04:19:55;4.65;;;3.65;;
8094;SDS011;4090;49.270;8.696;2023-08-31T04:22:37;7.60;;;3.78;;
8094;SDS011;4090;49.270;8.696;2023-08-31T04:25:20;5.88;;;3.20;;
8094;SDS011;4090;49.270;8.696;2023-08-31T04:28:02;4.45;;;3.47;;
8094;SDS011;4090;49.270;8.696;2023-08-31T04:30:44;4.35;;;3.42;;
8094;SDS011;4090;49.270;8.696;2023-08-31T04:33:26;7.03;;;3.33;;
8094;SDS011;4090;49.270;8.696;2023-08-31T04:36:08;6.13;;;3.60;;
8094;SDS011;4090;49.270;8.696;2023-08-31T04:38:50;5.32;;;3.45;;
8094;SDS011;4090;49.270;8.696;2023-08-31T04:41:33;9.48;;;4.15;;
8094;SDS011;4090;49.270;8.696;2023-08-31T04:44:15;6.55;;;3.58;;
8094;SDS011;4090;49.270;8.696;2023-08-31T04:46:57;4.65;;;2.97;;
8094;SDS011;4090;49.270;8.696;2023-08-31T04:49:39;5.30;;;3.03;;
8094;SDS011;4090;49.270;8.696;2023-08-31T04:52:20;5.30;;;3.38;;
8094;SDS011;4090;49.270;8.696;2023-08-31T04:55:06;5.32;;;3.40;;
8094;SDS011;4090;49.270;8.696;2023-08-31T04:57:50;4.20;;;3.35;;
8094;SDS011;4090;49.270;8.696;2023-08-31T05:00:32;5.35;;;3.25;;
8094;SDS011;4090;49.270;8.696;2023-08-31T05:03:14;4.35;;;3.28;;
8094;SDS011;4090;49.270;8.696;2023-08-31T05:05:55;6.28;;;3.17;;
8094;SDS011;4090;49.270;8.696;2023-08-31T05:08:37;6.25;;;3.08;;
8094;SDS011;4090;49.270;8.696;2023-08-31T05:11:19;6.40;;;3.17;;
8094;SDS011;4090;49.270;8.696;2023-08-31T05:14:02;5.93;;;3.25;;
8094;SDS011;4090;49.270;8.696;2023-08-31T05:16:44;5.53;;;2.90;;
8094;SDS011;4090;49.270;8.696;2023-08-31T05:19:27;6.15;;;3.08;;
8094;SDS011;4090;49.270;8.696;2023-08-31T05:22:10;4.93;;;2.95;;
8094;SDS011;4090;49.270;8.696;2023-08-31T05:24:52;6.95;;;3.10;;
8094;SDS011;4090;49.270;8.696;2023-08-31T05:27:34;6.07;;;3.20;;
8094;SDS011;4090;49.270;8.696;2023-08-31T05:30:17;5.60;;;3.08;;
8094;SDS011;4090;49.270;8.696;2023-08-31T05:32:59;5.57;;;3.10;;
8094;SDS011;4090;49.270;8.696;2023-08-31T05:35:40;9.93;;;3.50;;
8094;SDS011;4090;49.270;8.696;2023-08-31T05:38:22;5.70;;;3.13;;
8094;SDS011;4090;49.270;8.696;2023-08-31T05:41:05;4.32;;;3.35;;
8094;SDS011;4090;49.270;8.696;2023-08-31T05:43:47;4.90;;;3.20;;
8094;SDS011;4090;49.270;8.696;2023-08-31T05:46:30;5.10;;;3.10;;
8094;SDS011;4090;49.270;8.696;2023-08-31T05:49:12;4.97;;;3.17;;
8094;SDS011;4090;49.270;8.696;2023-08-31T05:51:54;7.20;;;3.38;;
8094;SDS011;4090;49.270;8.696;2023-08-31T05:54:36;5.68;;;3.30;;
8094;SDS011;4090;49.270;8.696;2023-08-31T05:57:18;5.50;;;3.20;;
8094;SDS011;4090;49.270;8.696;2023-08-31T06:00:01;6.22;;;3.50;;
8094;SDS011;4090;49.270;8.696;2023-08-31T06:02:54;5.60;;;3.20;;
8094;SDS011;4090;49.270;8.696;2023-08-31T06:05:36;4.72;;;3.88;;
8094;SDS011;4090;49.270;8.696;2023-08-31T06:08:18;6.93;;;3.60;;
8094;SDS011;4090;49.270;8.696;2023-08-31T06:11:00;5.45;;;3.65;;
8094;SDS011;4090;49.270;8.696;2023-08-31T06:13:42;4.05;;;3.50;;
8094;SDS011;4090;49.270;8.696;2023-08-31T06:16:24;6.95;;;3.78;;
8094;SDS011;4090;49.270;8.696;2023-08-31T06:19:07;5.22;;;3.22;;
8094;SDS011;4090;49.270;8.696;2023-08-31T06:21:49;5.95;;;3.35;;
8094;SDS011;4090;49.270;8.696;2023-08-31T06:24:31;4.78;;;3.00;;
8094;SDS011;4090;49.270;8.696;2023-08-31T06:27:13;8.57;;;4.03;;
8094;SDS011;4090;49.270;8.696;2023-08-31T06:29:56;3.97;;;3.10;;
8094;SDS011;4090;49.270;8.696;2023-08-31T06:32:38;5.82;;;3.22;;
8094;SDS011;4090;49.270;8.696;2023-08-31T06:35:21;6.65;;;3.60;;
8094;SDS011;4090;49.270;8.696;2023-08-31T06:38:04;9.20;;;3.63;;
8094;SDS011;4090;49.270;8.696;2023-08-31T06:40:46;4.97;;;3.20;;
8094;SDS011;4090;49.270;8.696;2023-08-31T06:43:28;5.57;;;3.10;;
8094;SDS011;4090;49.270;8.696;2023-08-31T06:46:10;3.75;;;3.25;;
8094;SDS011;4090;49.270;8.696;2023-08-31T06:48:52;4.70;;;3.03;;
8094;SDS011;4090;49.270;8.696;2023-08-31T06:51:35;7.75;;;2.72;;
8094;SDS011;4090;49.270;8.696;2023-08-31T06:54:17;6.57;;;3.20;;
8094;SDS011;4090;49.270;8.696;2023-08-31T06:56:59;4.20;;;2.45;;
8094;SDS011;4090;49.270;8.696;2023-08-31T06:59:41;7.75;;;3.00;;
8094;SDS011;4090;49.270;8.696;2023-08-31T07:02:25;5.05;;;2.80;;
8094;SDS011;4090;49.270;8.696;2023-08-31T07:05:10;5.28;;;2.67;;
8094;SDS011;4090;49.270;8.696;2023-08-31T07:07:54;5.25;;;2.70;;
8094;SDS011;4090;49.270;8.696;2023-08-31T07:10:36;4.88;;;2.92;;
8094;SDS011;4090;49.270;8.696;2023-08-31T07:13:18;5.28;;;2.55;;
8094;SDS011;4090;49.270;8.696;2023-08-31T07:15:59;5.00;;;2.97;;
8094;SDS011;4090;49.270;8.696;2023-08-31T07:18:42;6.75;;;2.67;;
8094;SDS011;4090;49.270;8.696;2023-08-31T07:21:24;4.15;;;2.50;;
8094;SDS011;4090;49.270;8.696;2023-08-31T07:24:08;6.10;;;2.70;;
8094;SDS011;4090;49.270;8.696;2023-08-31T07:26:49;4.60;;;2.63;;
8094;SDS011;4090;49.270;8.696;2023-08-31T07:29:31;5.95;;;2.70;;
8094;SDS011;4090;49.270;8.696;2023-08-31T07:32:13;4.65;;;2.67;;
8094;SDS011;4090;49.270;8.696;2023-08-31T07:34:55;7.55;;;2.63;;
8094;SDS011;4090;49.270;8.696;2023-08-31T07:37:37;4.88;;;2.25;;
8094;SDS011;4090;49.270;8.696;2023-08-31T07:40:21;3.33;;;2.45;;
8094;SDS011;4090;49.270;8.696;2023-08-31T07:43:02;5.60;;;2.42;;
8094;SDS011;4090;49.270;8.696;2023-08-31T07:45:45;3.00;;;2.28;;
8094;SDS011;4090;49.270;8.696;2023-08-31T07:48:26;4.65;;;2.42;;
8094;SDS011;4090;49.270;8.696;2023-08-31T07:51:08;5.65;;;2.60;;
8094;SDS011;4090;49.270;8.696;2023-08-31T07:53:50;4.53;;;2.45;;
8094;SDS011;4090;49.270;8.696;2023-08-31T07:56:33;5.78;;;2.20;;
8094;SDS011;4090;49.270;8.696;2023-08-31T07:59:16;8.10;;;2.78;;
8094;SDS011;4090;49.270;8.696;2023-08-31T08:01:58;6.88;;;2.00;;
8094;SDS011;4090;49.270;8.696;2023-08-31T08:04:40;5.25;;;2.58;;
8094;SDS011;4090;49.270;8.696;2023-08-31T08:07:22;10.82;;;2.53;;
8094;SDS011;4090;49.270;8.696;2023-08-31T08:10:04;4.28;;;2.10;;
8094;SDS011;4090;49.270;8.696;2023-08-31T08:12:47;3.10;;;2.17;;
8094;SDS011;4090;49.270;8.696;2023-08-31T08:15:29;4.57;;;2.20;;
8094;SDS011;4090;49.270;8.696;2023-08-31T08:18:11;10.00;;;2.78;;
8094;SDS011;4090;49.270;8.696;2023-08-31T08:20:53;2.55;;;2.00;;
8094;SDS011;4090;49.270;8.696;2023-08-31T08:23:35;3.28;;;2.40;;
8094;SDS011;4090;49.270;8.696;2023-08-31T08:26:17;5.35;;;1.90;;
8094;SDS011;4090;49.270;8.696;2023-08-31T08:29:00;5.18;;;2.05;;
8094;SDS011;4090;49.270;8.696;2023-08-31T08:31:43;3.83;;;2.10;;
8094;SDS011;4090;49.270;8.696;2023-08-31T08:34:25;5.40;;;1.90;;
8094;SDS011;4090;49.270;8.696;2023-08-31T08:37:08;4.75;;;2.38;;
8094;SDS011;4090;49.270;8.696;2023-08-31T08:39:49;3.67;;;1.95;;
8094;SDS011;4090;49.270;8.696;2023-08-31T08:42:31;3.53;;;2.03;;
8094;SDS011;4090;49.270;8.696;2023-08-31T08:45:21;6.85;;;2.35;;
8094;SDS011;4090;49.270;8.696;2023-08-31T08:48:06;5.13;;;2.65;;
8094;SDS011;4090;49.270;8.696;2023-08-31T08:50:48;4.72;;;1.80;;
8094;SDS011;4090;49.270;8.696;2023-08-31T08:53:31;3.88;;;2.25;;
8094;SDS011;4090;49.270;8.696;2023-08-31T08:56:13;3.88;;;2.40;;
8094;SDS011;4090;49.270;8.696;2023-08-31T08:58:54;6.63;;;2.03;;
8094;SDS011;4090;49.270;8.696;2023-08-31T09:01:37;4.03;;;2.35;;
8094;SDS011;4090;49.270;8.696;2023-08-31T09:04:20;5.10;;;2.22;;
8094;SDS011;4090;49.270;8.696;2023-08-31T09:07:02;6.30;;;2.33;;
8094;SDS011;4090;49.270;8.696;2023-08-31T09:09:48;5.13;;;2.50;;
8094;SDS011;4090;49.270;8.696;2023-08-31T09:12:31;5.95;;;2.50;;
8094;SDS011;4090;49.270;8.696;2023-08-31T09:15:17;5.63;;;2.47;;
8094;SDS011;4090;49.270;8.696;2023-08-31T09:18:00;4.82;;;2.35;;
8094;SDS011;4090;49.270;8.696;2023-08-31T09:20:43;7.53;;;3.28;;
8094;SDS011;4090;49.270;8.696;2023-08-31T09:23:26;7.45;;;2.08;;
8094;SDS011;4090;49.270;8.696;2023-08-31T09:26:08;5.55;;;2.33;;
8094;SDS011;4090;49.270;8.696;2023-08-31T09:28:51;7.25;;;2.40;;
8094;SDS011;4090;49.270;8.696;2023-08-31T09:31:33;4.50;;;2.50;;
8094;SDS011;4090;49.270;8.696;2023-08-31T09:34:17;2.35;;;1.83;;
8094;SDS011;4090;49.270;8.696;2023-08-31T09:37:03;4.13;;;2.10;;
8094;SDS011;4090;49.270;8.696;2023-08-31T09:39:46;4.88;;;2.17;;
8094;SDS011;4090;49.270;8.696;2023-08-31T09:42:33;2.72;;;2.03;;
8094;SDS011;4090;49.270;8.696;2023-08-31T09:45:17;3.70;;;2.30;;
8094;SDS011;4090;49.270;8.696;2023-08-31T09:48:06;4.82;;;2.13;;
8094;SDS011;4090;49.270;8.696;2023-08-31T09:50:49;4.82;;;2.13;;
8094;SDS011;4090;49.270;8.696;2023-08-31T09:53:33;4.07;;;2.38;;
8094;SDS011;4090;49.270;8.696;2023-08-31T09:56:18;5.70;;;2.72;;
8094;SDS011;4090;49.270;8.696;2023-08-31T09:59:04;4.20;;;2.05;;
8094;SDS011;4090;49.270;8.696;2023-08-31T10:01:46;4.88;;;2.10;;
8094;SDS011;4090;49.270;8.696;2023-08-31T10:04:29;4.18;;;2.15;;
8094;SDS011;4090;49.270;8.696;2023-08-31T10:07:14;3.05;;;2.03;;
8094;SDS011;4090;49.270;8.696;2023-08-31T10:09:56;3.58;;;2.63;;
8094;SDS011;4090;49.270;8.696;2023-08-31T10:12:38;3.17;;;1.88;;
8094;SDS011;4090;49.270;8.696;2023-08-31T10:15:23;4.63;;;2.10;;
8094;SDS011;4090;49.270;8.696;2023-08-31T10:18:07;3.80;;;2.08;;
8094;SDS011;4090;49.270;8.696;2023-08-31T10:20:49;5.10;;;2.20;;
8094;SDS011;4090;49.270;8.696;2023-08-31T10:23:32;4.45;;;2.05;;
8094;SDS011;4090;49.270;8.696;2023-08-31T10:26:25;5.50;;;2.80;;
8094;SDS011;4090;49.270;8.696;2023-08-31T10:29:08;2.42;;;2.10;;
8094;SDS011;4090;49.270;8.696;2023-08-31T10:32:07;3.63;;;1.88;;
8094;SDS011;4090;49.270;8.696;2023-08-31T10:35:04;6.03;;;2.10;;
8094;SDS011;4090;49.270;8.696;2023-08-31T10:37:47;2.88;;;1.95;;
8094;SDS011;4090;49.270;8.696;2023-08-31T10:40:31;3.03;;;2.10;;
8094;SDS011;4090;49.270;8.696;2023-08-31T10:43:14;3.28;;;2.30;;
8094;SDS011;4090;49.270;8.696;2023-08-31T10:45:58;4.72;;;2.10;;
8094;SDS011;4090;49.270;8.696;2023-08-31T10:48:49;3.28;;;1.98;;
8094;SDS011;4090;49.270;8.696;2023-08-31T10:51:31;3.05;;;2.10;;
8094;SDS011;4090;49.270;8.696;2023-08-31T10:54:19;5.18;;;1.88;;
8094;SDS011;4090;49.270;8.696;2023-08-31T10:57:04;4.97;;;1.70;;
8094;SDS011;4090;49.270;8.696;2023-08-31T10:59:47;3.67;;;2.10;;
8094;SDS011;4090;49.270;8.696;2023-08-31T11:02:31;5.13;;;2.20;;
8094;SDS011;4090;49.270;8.696;2023-08-31T11:05:16;3.90;;;2.15;;
8094;SDS011;4090;49.270;8.696;2023-08-31T11:07:59;6.85;;;1.98;;
8094;SDS011;4090;49.270;8.696;2023-08-31T11:10:41;8.05;;;1.95;;
8094;SDS011;4090;49.270;8.696;2023-08-31T11:13:28;5.90;;;2.17;;
8094;SDS011;4090;49.270;8.696;2023-08-31T11:16:10;7.22;;;2.17;;
8094;SDS011;4090;49.270;8.696;2023-08-31T11:18:52;4.63;;;1.80;;
8094;SDS011;4090;49.270;8.696;2023-08-31T11:21:35;7.53;;;2.28;;
8094;SDS011;4090;49.270;8.696;2023-08-31T11:24:18;4.88;;;2.20;;
8094;SDS011;4090;49.270;8.696;2023-08-31T11:27:01;6.40;;;1.98;;
8094;SDS011;4090;49.270;8.696;2023-08-31T11:29:45;6.72;;;2.10;;
8094;SDS011;4090;49.270;8.696;2023-08-31T11:32:27;4.72;;;1.98;;
8094;SDS011;4090;49.270;8.696;2023-08-31T11:35:09;6.22;;;1.98;;
8094;SDS011;4090;49.270;8.696;2023-08-31T11:37:55;3.65;;;2.10;;
8094;SDS011;4090;49.270;8.696;2023-08-31T11:40:38;5.97;;;2.22;;
8094;SDS011;4090;49.270;8.696;2023-08-31T11:43:20;3.40;;;1.90;;
8094;SDS011;4090;49.270;8.696;2023-08-31T11:46:03;10.65;;;2.58;;
8094;SDS011;4090;49.270;8.696;2023-08-31T11:48:46;5.93;;;1.88;;
8094;SDS011;4090;49.270;8.696;2023-08-31T11:51:28;5.38;;;1.98;;
8094;SDS011;4090;49.270;8.696;2023-08-31T11:54:10;4.78;;;2.20;;
8094;SDS011;4090;49.270;8.696;2023-08-31T11:56:52;5.93;;;1.88;;
8094;SDS011;4090;49.270;8.696;2023-08-31T11:59:35;5.13;;;2.33;;
8094;SDS011;4090;49.270;8.696;2023-08-31T12:02:19;5.68;;;2.53;;
8094;SDS011;4090;49.270;8.696;2023-08-31T12:05:01;5.53;;;2.40;;
8094;SDS011;4090;49.270;8.696;2023-08-31T12:07:45;4.50;;;2.00;;
8094;SDS011;4090;49.270;8.696;2023-08-31T12:10:27;5.10;;;2.22;;
8094;SDS011;4090;49.270;8.696;2023-08-31T12:13:09;5.22;;;2.10;;
8094;SDS011;4090;49.270;8.696;2023-08-31T12:15:53;6.22;;;2.10;;
8094;SDS011;4090;49.270;8.696;2023-08-31T12:18:36;3.67;;;2.17;;
8094;SDS011;4090;49.270;8.696;2023-08-31T12:21:19;6.30;;;2.20;;
8094;SDS011;4090;49.270;8.696;2023-08-31T12:24:01;7.30;;;2.13;;
8094;SDS011;4090;49.270;8.696;2023-08-31T12:26:43;5.63;;;2.30;;
8094;SDS011;4090;49.270;8.696;2023-08-31T12:29:25;5.10;;;2.20;;
8094;SDS011;4090;49.270;8.696;2023-08-31T12:32:07;5.88;;;2.20;;
8094;SDS011;4090;49.270;8.696;2023-08-31T12:34:50;5.68;;;2.28;;
8094;SDS011;4090;49.270;8.696;2023-08-31T12:37:32;3.53;;;2.10;;
8094;SDS011;4090;49.270;8.696;2023-08-31T12:40:14;6.93;;;2.10;;
8094;SDS011;4090;49.270;8.696;2023-08-31T12:42:55;5.25;;;2.15;;
8094;SDS011;4090;49.270;8.696;2023-08-31T12:45:37;5.90;;;2.47;;
8094;SDS011;4090;49.270;8.696;2023-08-31T12:48:20;5.03;;;2.03;;
8094;SDS011;4090;49.270;8.696;2023-08-31T12:51:04;4.35;;;2.08;;
8094;SDS011;4090;49.270;8.696;2023-08-31T12:53:46;5.28;;;2.20;;
8094;SDS011;4090;49.270;8.696;2023-08-31T12:56:28;6.10;;;2.30;;
8094;SDS011;4090;49.270;8.696;2023-08-31T12:59:10;2.38;;;2.05;;
8094;SDS011;4090;49.270;8.696;2023-08-31T13:01:52;3.65;;;2.00;;
8094;SDS011;4090;49.270;8.696;2023-08-31T13:04:34;7.72;;;2.25;;
8094;SDS011;4090;49.270;8.696;2023-08-31T13:07:17;6.07;;;2.40;;
8094;SDS011;4090;49.270;8.696;2023-08-31T13:09:59;6.97;;;2.65;;
8094;SDS011;4090;49.270;8.696;2023-08-31T13:12:42;9.23;;;1.92;;
8094;SDS011;4090;49.270;8.696;2023-08-31T13:15:24;5.90;;;2.20;;
8094;SDS011;4090;49.270;8.696;2023-08-31T13:18:05;4.43;;;2.10;;
8094;SDS011;4090;49.270;8.696;2023-08-31T13:20:50;4.22;;;2.28;;
8094;SDS011;4090;49.270;8.696;2023-08-31T13:23:34;5.60;;;2.38;;
8094;SDS011;4090;49.270;8.696;2023-08-31T13:26:16;4.55;;;1.88;;
8094;SDS011;4090;49.270;8.696;2023-08-31T13:28:57;4.65;;;2.15;;
8094;SDS011;4090;49.270;8.696;2023-08-31T13:31:39;4.75;;;1.98;;
8094;SDS011;4090;49.270;8.696;2023-08-31T13:34:21;5.28;;;2.30;;
8094;SDS011;4090;49.270;8.696;2023-08-31T13:37:03;5.93;;;2.40;;
8094;SDS011;4090;49.270;8.696;2023-08-31T13:39:46;4.50;;;2.20;;
8094;SDS011;4090;49.270;8.696;2023-08-31T13:42:33;4.82;;;2.70;;
8094;SDS011;4090;49.270;8.696;2023-08-31T13:45:15;6.30;;;2.20;;
8094;SDS011;4090;49.270;8.696;2023-08-31T13:47:57;4.65;;;1.90;;
8094;SDS011;4090;49.270;8.696;2023-08-31T13:50:40;7.07;;;1.95;;
8094;SDS011;4090;49.270;8.696;2023-08-31T13:53:22;7.25;;;2.13;;
8094;SDS011;4090;49.270;8.696;2023-08-31T13:56:05;6.30;;;2.58;;
8094;SDS011;4090;49.270;8.696;2023-08-31T13:58:48;6.38;;;2.30;;
8094;SDS011;4090;49.270;8.696;2023-08-31T14:01:30;5.78;;;2.60;;
8094;SDS011;4090;49.270;8.696;2023-08-31T14:04:11;6.78;;;2.45;;
8094;SDS011;4090;49.270;8.696;2023-08-31T14:06:53;4.03;;;2.08;;
8094;SDS011;4090;49.270;8.696;2023-08-31T14:09:35;6.32;;;1.85;;
8094;SDS011;4090;49.270;8.696;2023-08-31T14:12:18;4.57;;;2.10;;
8094;SDS011;4090;49.270;8.696;2023-08-31T14:15:01;4.22;;;1.90;;
8094;SDS011;4090;49.270;8.696;2023-08-31T14:17:44;5.57;;;2.30;;
8094;SDS011;4090;49.270;8.696;2023-08-31T14:20:26;4.85;;;2.10;;
8094;SDS011;4090;49.270;8.696;2023-08-31T14:23:08;5.68;;;2.40;;
8094;SDS011;4090;49.270;8.696;2023-08-31T14:25:50;6.68;;;2.30;;
8094;SDS011;4090;49.270;8.696;2023-08-31T14:28:33;7.38;;;2.28;;
8094;SDS011;4090;49.270;8.696;2023-08-31T14:31:15;5.15;;;1.80;;
8094;SDS011;4090;49.270;8.696;2023-08-31T14:33:57;5.22;;;2.03;;
8094;SDS011;4090;49.270;8.696;2023-08-31T14:36:39;7.32;;;2.35;;
8094;SDS011;4090;49.270;8.696;2023-08-31T14:39:21;5.50;;;2.40;;
8094;SDS011;4090;49.270;8.696;2023-08-31T14:42:03;4.95;;;2.00;;
8094;SDS011;4090;49.270;8.696;2023-08-31T14:44:46;3.78;;;2.08;;
8094;SDS011;4090;49.270;8.696;2023-08-31T14:47:29;5.38;;;2.20;;
8094;SDS011;4090;49.270;8.696;2023-08-31T14:50:11;5.15;;;2.35;;
8094;SDS011;4090;49.270;8.696;2023-08-31T14:52:52;6.82;;;2.42;;
8094;SDS011;4090;49.270;8.696;2023-08-31T14:55:34;6.85;;;2.40;;
8094;SDS011;4090;49.270;8.696;2023-08-31T14:58:16;5.47;;;2.45;;
8094;SDS011;4090;49.270;8.696;2023-08-31T15:00:59;6.70;;;2.03;;
8094;SDS011;4090;49.270;8.696;2023-08-31T15:03:41;4.15;;;1.90;;
8094;SDS011;4090;49.270;8.696;2023-08-31T15:06:23;3.75;;;2.08;;
8094;SDS011;4090;49.270;8.696;2023-08-31T15:09:05;5.82;;;2.47;;
8094;SDS011;4090;49.270;8.696;2023-08-31T15:11:47;5.70;;;2.40;;
8094;SDS011;4090;49.270;8.696;2023-08-31T15:14:29;5.13;;;2.20;;
8094;SDS011;4090;49.270;8.696;2023-08-31T15:17:12;4.43;;;2.53;;
8094;SDS011;4090;49.270;8.696;2023-08-31T15:19:54;6.13;;;2.08;;
8094;SDS011;4090;49.270;8.696;2023-08-31T15:22:36;4.95;;;2.30;;
8094;SDS011;4090;49.270;8.696;2023-08-31T15:25:18;6.55;;;2.45;;
8094;SDS011;4090;49.270;8.696;2023-08-31T15:27:59;5.82;;;2.15;;
8094;SDS011;4090;49.270;8.696;2023-08-31T15:30:43;6.95;;;2.33;;
8094;SDS011;4090;49.270;8.696;2023-08-31T15:33:26;5.07;;;2.17;;
8094;SDS011;4090;49.270;8.696;2023-08-31T15:36:08;6.75;;;2.30;;
8094;SDS011;4090;49.270;8.696;2023-08-31T15:38:50;7.93;;;2.45;;
8094;SDS011;4090;49.270;8.696;2023-08-31T15:41:32;4.03;;;2.13;;
8094;SDS011;4090;49.270;8.696;2023-08-31T15:44:16;8.15;;;2.53;;
8094;SDS011;4090;49.270;8.696;2023-08-31T15:46:58;6.40;;;2.17;;
8094;SDS011;4090;49.270;8.696;2023-08-31T15:49:41;5.20;;;2.25;;
8094;SDS011;4090;49.270;8.696;2023-08-31T15:52:23;6.00;;;2.40;;
8094;SDS011;4090;49.270;8.696;2023-08-31T15:55:05;5.43;;;2.40;;
8094;SDS011;4090;49.270;8.696;2023-08-31T15:57:48;5.60;;;2.30;;
8094;SDS011;4090;49.270;8.696;2023-08-31T16:00:29;7.80;;;2.47;;
8094;SDS011;4090;49.270;8.696;2023-08-31T16:03:11;5.85;;;2.63;;
8094;SDS011;4090;49.270;8.696;2023-08-31T16:05:55;5.53;;;2.13;;
8094;SDS011;4090;49.270;8.696;2023-08-31T16:08:37;4.07;;;2.05;;
8094;SDS011;4090;49.270;8.696;2023-08-31T16:11:19;4.72;;;2.30;;
8094;SDS011;4090;49.270;8.696;2023-08-31T16:14:04;4.72;;;2.17;;
8094;SDS011;4090;49.270;8.696;2023-08-31T16:16:46;5.57;;;2.20;;
8094;SDS011;4090;49.270;8.696;2023-08-31T16:19:28;7.18;;;2.75;;
8094;SDS011;4090;49.270;8.696;2023-08-31T16:22:11;4.57;;;2.13;;
8094;SDS011;4090;49.270;8.696;2023-08-31T16:24:53;6.07;;;2.35;;
8094;SDS011;4090;49.270;8.696;2023-08-31T16:27:34;4.10;;;2.50;;
8094;SDS011;4090;49.270;8.696;2023-08-31T16:30:16;7.30;;;2.22;;
8094;SDS011;4090;49.270;8.696;2023-08-31T16:32:58;6.50;;;2.05;;
8094;SDS011;4090;49.270;8.696;2023-08-31T16:35:40;5.32;;;2.47;;
8094;SDS011;4090;49.270;8.696;2023-08-31T16:38:23;6.43;;;2.50;;
8094;SDS011;4090;49.270;8.696;2023-08-31T16:41:05;6.13;;;2.47;;
8094;SDS011;4090;49.270;8.696;2023-08-31T16:43:47;7.45;;;2.70;;
8094;SDS011;4090;49.270;8.696;2023-08-31T16:46:29;14.07;;;2.88;;
8094;SDS011;4090;49.270;8.696;2023-08-31T16:49:11;4.95;;;2.10;;
8094;SDS011;4090;49.270;8.696;2023-08-31T16:51:53;5.30;;;2.15;;